sensor_id;sensor_type;location;lat;lon;timestamp;temperature;humidity
70708;SHT30;58277;47.316;18.908;2022-10-31T00:01:34;13.19;88.69
70708;SHT30;58277;47.316;18.908;2022-10-31T00:03:56;13.19;88.88
70708;SHT30;58277;47.316;18.908;2022-10-31T00:06:19;13.13;88.92
70708;SHT30;58277;47.316;18.908;2022-10-31T00:08:42;12.91;89.95
70708;SHT30;58277;47.316;18.908;2022-10-31T00:11:09;12.85;90.21
70708;SHT30;58277;47.316;18.908;2022-10-31T00:13:31;12.96;89.90
70708;SHT30;58277;47.316;18.908;2022-10-31T00:15:54;13.07;89.24
70708;SHT30;58277;47.316;18.908;2022-10-31T00:18:17;13.07;89.45
70708;SHT30;58277;47.316;18.908;2022-10-31T00:20:39;13.10;89.25
70708;SHT30;58277;47.316;18.908;2022-10-31T00:23:03;13.10;89.06
70708;SHT30;58277;47.316;18.908;2022-10-31T00:25:28;13.00;89.45
70708;SHT30;58277;47.316;18.908;2022-10-31T00:27:50;12.89;89.81
70708;SHT30;58277;47.316;18.908;2022-10-31T00:30:13;12.95;89.40
70708;SHT30;58277;47.316;18.908;2022-10-31T00:32:36;13.03;89.25
70708;SHT30;58277;47.316;18.908;2022-10-31T00:34:59;12.95;89.55
70708;SHT30;58277;47.316;18.908;2022-10-31T00:37:21;12.98;89.41
70708;SHT30;58277;47.316;18.908;2022-10-31T00:39:44;13.06;89.29
70708;SHT30;58277;47.316;18.908;2022-10-31T00:42:07;13.00;89.41
70708;SHT30;58277;47.316;18.908;2022-10-31T00:44:30;13.00;89.39
70708;SHT30;58277;47.316;18.908;2022-10-31T00:46:53;12.91;89.75
70708;SHT30;58277;47.316;18.908;2022-10-31T00:49:16;12.91;89.70
70708;SHT30;58277;47.316;18.908;2022-10-31T00:51:39;12.93;89.61
70708;SHT30;58277;47.316;18.908;2022-10-31T00:54:01;12.95;89.39
70708;SHT30;58277;47.316;18.908;2022-10-31T00:56:24;12.88;89.88
70708;SHT30;58277;47.316;18.908;2022-10-31T00:58:47;12.96;89.56
70708;SHT30;58277;47.316;18.908;2022-10-31T01:01:09;12.96;89.43
70708;SHT30;58277;47.316;18.908;2022-10-31T01:03:33;13.06;89.03
70708;SHT30;58277;47.316;18.908;2022-10-31T01:06:00;13.06;89.02
70708;SHT30;58277;47.316;18.908;2022-10-31T01:08:23;13.10;88.84
70708;SHT30;58277;47.316;18.908;2022-10-31T01:10:46;13.12;88.94
70708;SHT30;58277;47.316;18.908;2022-10-31T01:13:09;13.09;89.07
70708;SHT30;58277;47.316;18.908;2022-10-31T01:15:32;13.20;88.76
70708;SHT30;58277;47.316;18.908;2022-10-31T01:17:55;13.12;89.10
70708;SHT30;58277;47.316;18.908;2022-10-31T01:20:18;12.98;89.27
70708;SHT30;58277;47.316;18.908;2022-10-31T01:22:41;13.07;89.08
70708;SHT30;58277;47.316;18.908;2022-10-31T01:25:04;13.00;89.23
70708;SHT30;58277;47.316;18.908;2022-10-31T01:27:26;13.07;89.08
70708;SHT30;58277;47.316;18.908;2022-10-31T01:29:49;13.09;89.23
70708;SHT30;58277;47.316;18.908;2022-10-31T01:32:12;13.09;89.30
70708;SHT30;58277;47.316;18.908;2022-10-31T01:34:34;13.03;89.35
70708;SHT30;58277;47.316;18.908;2022-10-31T01:36:57;13.05;89.28
70708;SHT30;58277;47.316;18.908;2022-10-31T01:39:20;13.07;89.17
70708;SHT30;58277;47.316;18.908;2022-10-31T01:42:03;12.78;89.62
70708;SHT30;58277;47.316;18.908;2022-10-31T01:47:39;12.93;89.43
70708;SHT30;58277;47.316;18.908;2022-10-31T01:50:09;12.98;89.25
70708;SHT30;58277;47.316;18.908;2022-10-31T01:52:39;13.07;88.80
70708;SHT30;58277;47.316;18.908;2022-10-31T01:55:24;13.02;88.87
70708;SHT30;58277;47.316;18.908;2022-10-31T01:57:53;13.00;88.95
70708;SHT30;58277;47.316;18.908;2022-10-31T02:00:19;12.93;89.15
70708;SHT30;58277;47.316;18.908;2022-10-31T02:02:42;12.75;89.52
70708;SHT30;58277;47.316;18.908;2022-10-31T02:05:10;12.78;89.39
70708;SHT30;58277;47.316;18.908;2022-10-31T02:07:39;12.79;89.28
70708;SHT30;58277;47.316;18.908;2022-10-31T02:10:04;12.77;89.20
70708;SHT30;58277;47.316;18.908;2022-10-31T02:12:29;12.88;88.89
70708;SHT30;58277;47.316;18.908;2022-10-31T02:14:54;12.84;88.88
70708;SHT30;58277;47.316;18.908;2022-10-31T02:17:17;12.87;88.85
70708;SHT30;58277;47.316;18.908;2022-10-31T02:19:54;12.84;88.87
70708;SHT30;58277;47.316;18.908;2022-10-31T02:36:25;12.92;88.71
70708;SHT30;58277;47.316;18.908;2022-10-31T02:41:57;12.87;88.86
70708;SHT30;58277;47.316;18.908;2022-10-31T02:47:08;12.68;89.59
70708;SHT30;58277;47.316;18.908;2022-10-31T02:49:55;12.64;89.58
70708;SHT30;58277;47.316;18.908;2022-10-31T02:52:30;12.65;89.78
70708;SHT30;58277;47.316;18.908;2022-10-31T02:54:58;12.61;89.83
70708;SHT30;58277;47.316;18.908;2022-10-31T02:57:25;12.62;89.87
70708;SHT30;58277;47.316;18.908;2022-10-31T02:59:56;12.65;89.81
70708;SHT30;58277;47.316;18.908;2022-10-31T03:02:52;12.71;89.87
70708;SHT30;58277;47.316;18.908;2022-10-31T03:10:57;12.75;89.73
70708;SHT30;58277;47.316;18.908;2022-10-31T03:15:54;12.74;89.60
70708;SHT30;58277;47.316;18.908;2022-10-31T03:18:29;12.65;89.60
70708;SHT30;58277;47.316;18.908;2022-10-31T03:21:13;12.65;89.67
70708;SHT30;58277;47.316;18.908;2022-10-31T03:23:37;12.78;89.21
70708;SHT30;58277;47.316;18.908;2022-10-31T03:26:03;12.81;89.17
70708;SHT30;58277;47.316;18.908;2022-10-31T03:28:29;12.69;89.57
70708;SHT30;58277;47.316;18.908;2022-10-31T03:30:54;12.87;88.98
70708;SHT30;58277;47.316;18.908;2022-10-31T03:33:22;12.84;89.00
70708;SHT30;58277;47.316;18.908;2022-10-31T03:35:50;12.77;89.18
70708;SHT30;58277;47.316;18.908;2022-10-31T03:38:14;12.69;89.23
70708;SHT30;58277;47.316;18.908;2022-10-31T03:40:40;12.67;89.48
70708;SHT30;58277;47.316;18.908;2022-10-31T03:43:08;12.54;89.66
70708;SHT30;58277;47.316;18.908;2022-10-31T03:45:37;12.54;89.63
70708;SHT30;58277;47.316;18.908;2022-10-31T03:48:01;12.65;89.25
70708;SHT30;58277;47.316;18.908;2022-10-31T03:50:30;12.65;89.22
70708;SHT30;58277;47.316;18.908;2022-10-31T03:55:30;12.60;89.57
70708;SHT30;58277;47.316;18.908;2022-10-31T04:00:21;12.58;89.72
70708;SHT30;58277;47.316;18.908;2022-10-31T04:02:57;12.38;90.48
70708;SHT30;58277;47.316;18.908;2022-10-31T04:05:24;12.44;90.18
70708;SHT30;58277;47.316;18.908;2022-10-31T04:07:53;12.50;90.09
70708;SHT30;58277;47.316;18.908;2022-10-31T04:10:31;12.47;90.17
70708;SHT30;58277;47.316;18.908;2022-10-31T04:13:00;12.48;90.44
70708;SHT30;58277;47.316;18.908;2022-10-31T04:15:32;12.50;90.11
70708;SHT30;58277;47.316;18.908;2022-10-31T04:17:58;12.34;90.74
70708;SHT30;58277;47.316;18.908;2022-10-31T04:20:36;12.33;90.63
70708;SHT30;58277;47.316;18.908;2022-10-31T04:23:00;12.23;91.25
70708;SHT30;58277;47.316;18.908;2022-10-31T04:25:23;12.12;91.44
70708;SHT30;58277;47.316;18.908;2022-10-31T04:27:46;12.20;91.38
70708;SHT30;58277;47.316;18.908;2022-10-31T04:30:09;12.29;91.02
70708;SHT30;58277;47.316;18.908;2022-10-31T04:32:35;12.07;91.59
70708;SHT30;58277;47.316;18.908;2022-10-31T04:34:58;12.12;92.01
70708;SHT30;58277;47.316;18.908;2022-10-31T04:37:20;12.07;91.96
70708;SHT30;58277;47.316;18.908;2022-10-31T04:39:43;12.12;91.76
70708;SHT30;58277;47.316;18.908;2022-10-31T04:42:24;12.17;91.85
70708;SHT30;58277;47.316;18.908;2022-10-31T04:44:47;12.20;91.50
70708;SHT30;58277;47.316;18.908;2022-10-31T04:47:10;12.16;91.66
70708;SHT30;58277;47.316;18.908;2022-10-31T04:49:32;12.20;91.53
70708;SHT30;58277;47.316;18.908;2022-10-31T04:51:55;12.12;92.02
70708;SHT30;58277;47.316;18.908;2022-10-31T04:54:19;12.30;91.36
70708;SHT30;58277;47.316;18.908;2022-10-31T04:57:04;12.34;91.01
70708;SHT30;58277;47.316;18.908;2022-10-31T04:59:27;12.40;90.96
70708;SHT30;58277;47.316;18.908;2022-10-31T05:01:49;12.17;91.31
70708;SHT30;58277;47.316;18.908;2022-10-31T05:04:18;12.26;91.13
70708;SHT30;58277;47.316;18.908;2022-10-31T05:06:41;12.26;91.52
70708;SHT30;58277;47.316;18.908;2022-10-31T05:09:04;12.21;91.34
70708;SHT30;58277;47.316;18.908;2022-10-31T05:11:26;12.06;91.49
70708;SHT30;58277;47.316;18.908;2022-10-31T05:13:55;12.04;91.91
70708;SHT30;58277;47.316;18.908;2022-10-31T05:16:44;12.04;91.82
70708;SHT30;58277;47.316;18.908;2022-10-31T05:19:29;11.93;91.97
70708;SHT30;58277;47.316;18.908;2022-10-31T05:22:21;11.97;91.89
70708;SHT30;58277;47.316;18.908;2022-10-31T05:24:43;11.96;91.62
70708;SHT30;58277;47.316;18.908;2022-10-31T05:27:07;11.96;91.67
70708;SHT30;58277;47.316;18.908;2022-10-31T05:29:30;12.03;91.74
70708;SHT30;58277;47.316;18.908;2022-10-31T05:31:57;12.16;91.53
70708;SHT30;58277;47.316;18.908;2022-10-31T05:34:49;12.19;91.19
70708;SHT30;58277;47.316;18.908;2022-10-31T05:37:32;12.26;90.97
70708;SHT30;58277;47.316;18.908;2022-10-31T05:39:55;12.40;90.57
70708;SHT30;58277;47.316;18.908;2022-10-31T05:42:17;12.47;90.46
70708;SHT30;58277;47.316;18.908;2022-10-31T05:44:40;12.54;90.25
70708;SHT30;58277;47.316;18.908;2022-10-31T05:47:17;12.52;90.13
70708;SHT30;58277;47.316;18.908;2022-10-31T05:49:58;12.54;90.06
70708;SHT30;58277;47.316;18.908;2022-10-31T05:52:27;12.69;89.63
70708;SHT30;58277;47.316;18.908;2022-10-31T05:54:57;12.61;89.68
70708;SHT30;58277;47.316;18.908;2022-10-31T05:57:19;12.67;89.25
70708;SHT30;58277;47.316;18.908;2022-10-31T05:59:42;12.79;88.71
70708;SHT30;58277;47.316;18.908;2022-10-31T06:02:05;12.79;88.94
70708;SHT30;58277;47.316;18.908;2022-10-31T06:04:47;12.77;89.10
70708;SHT30;58277;47.316;18.908;2022-10-31T06:07:10;12.74;89.20
70708;SHT30;58277;47.316;18.908;2022-10-31T06:09:33;12.60;89.23
70708;SHT30;58277;47.316;18.908;2022-10-31T06:11:56;12.41;89.56
70708;SHT30;58277;47.316;18.908;2022-10-31T06:14:21;12.31;90.08
70708;SHT30;58277;47.316;18.908;2022-10-31T06:16:49;12.40;90.03
70708;SHT30;58277;47.316;18.908;2022-10-31T06:19:32;12.27;90.28
70708;SHT30;58277;47.316;18.908;2022-10-31T06:21:54;12.10;90.58
70708;SHT30;58277;47.316;18.908;2022-10-31T06:24:17;12.10;90.94
70708;SHT30;58277;47.316;18.908;2022-10-31T06:26:54;12.13;91.22
70708;SHT30;58277;47.316;18.908;2022-10-31T06:29:17;12.16;90.85
70708;SHT30;58277;47.316;18.908;2022-10-31T06:31:55;12.23;90.73
70708;SHT30;58277;47.316;18.908;2022-10-31T06:34:18;12.47;89.98
70708;SHT30;58277;47.316;18.908;2022-10-31T06:36:41;12.23;90.28
70708;SHT30;58277;47.316;18.908;2022-10-31T06:39:04;12.33;90.21
70708;SHT30;58277;47.316;18.908;2022-10-31T06:41:26;12.47;90.10
70708;SHT30;58277;47.316;18.908;2022-10-31T06:43:49;12.42;90.01
70708;SHT30;58277;47.316;18.908;2022-10-31T06:46:46;12.47;90.11
70708;SHT30;58277;47.316;18.908;2022-10-31T06:49:29;12.37;90.02
70708;SHT30;58277;47.316;18.908;2022-10-31T06:51:56;12.51;89.74
70708;SHT30;58277;47.316;18.908;2022-10-31T06:54:19;12.41;89.85
70708;SHT30;58277;47.316;18.908;2022-10-31T06:56:42;12.45;89.65
70708;SHT30;58277;47.316;18.908;2022-10-31T06:59:05;12.20;89.96
70708;SHT30;58277;47.316;18.908;2022-10-31T07:01:51;12.12;90.84
70708;SHT30;58277;47.316;18.908;2022-10-31T07:04:14;12.10;91.22
70708;SHT30;58277;47.316;18.908;2022-10-31T07:06:37;12.06;91.27
70708;SHT30;58277;47.316;18.908;2022-10-31T07:09:00;12.04;91.32
70708;SHT30;58277;47.316;18.908;2022-10-31T07:11:22;12.19;91.05
70708;SHT30;58277;47.316;18.908;2022-10-31T07:13:45;12.12;90.95
70708;SHT30;58277;47.316;18.908;2022-10-31T07:16:08;12.04;91.14
70708;SHT30;58277;47.316;18.908;2022-10-31T07:18:33;11.94;91.31
70708;SHT30;58277;47.316;18.908;2022-10-31T07:20:57;11.92;91.54
70708;SHT30;58277;47.316;18.908;2022-10-31T07:23:20;11.92;91.63
70708;SHT30;58277;47.316;18.908;2022-10-31T07:26:03;12.09;91.34
70708;SHT30;58277;47.316;18.908;2022-10-31T07:28:33;12.09;91.33
70708;SHT30;58277;47.316;18.908;2022-10-31T07:30:57;11.89;91.52
70708;SHT30;58277;47.316;18.908;2022-10-31T07:33:21;12.07;91.42
70708;SHT30;58277;47.316;18.908;2022-10-31T07:36:03;12.16;91.00
70708;SHT30;58277;47.316;18.908;2022-10-31T07:38:26;12.21;91.01
70708;SHT30;58277;47.316;18.908;2022-10-31T07:40:50;12.29;90.60
70708;SHT30;58277;47.316;18.908;2022-10-31T07:43:15;12.24;90.53
70708;SHT30;58277;47.316;18.908;2022-10-31T07:45:53;12.26;90.81
70708;SHT30;58277;47.316;18.908;2022-10-31T07:48:35;12.29;90.90
70708;SHT30;58277;47.316;18.908;2022-10-31T07:51:16;12.19;90.84
70708;SHT30;58277;47.316;18.908;2022-10-31T07:54:05;12.13;91.23
70708;SHT30;58277;47.316;18.908;2022-10-31T07:56:27;12.24;90.87
70708;SHT30;58277;47.316;18.908;2022-10-31T07:58:50;12.33;90.41
70708;SHT30;58277;47.316;18.908;2022-10-31T08:01:13;12.27;90.64
70708;SHT30;58277;47.316;18.908;2022-10-31T08:03:43;12.27;90.70
70708;SHT30;58277;47.316;18.908;2022-10-31T08:06:24;12.20;90.72
70708;SHT30;58277;47.316;18.908;2022-10-31T08:09:13;12.42;90.26
70708;SHT30;58277;47.316;18.908;2022-10-31T08:11:38;12.60;89.70
70708;SHT30;58277;47.316;18.908;2022-10-31T08:14:01;12.71;89.53
70708;SHT30;58277;47.316;18.908;2022-10-31T08:16:24;12.92;88.99
70708;SHT30;58277;47.316;18.908;2022-10-31T08:18:54;13.09;88.22
70708;SHT30;58277;47.316;18.908;2022-10-31T08:21:18;13.09;87.81
70708;SHT30;58277;47.316;18.908;2022-10-31T08:23:41;13.09;88.14
70708;SHT30;58277;47.316;18.908;2022-10-31T08:26:04;12.96;88.34
70708;SHT30;58277;47.316;18.908;2022-10-31T08:28:28;13.10;87.11
70708;SHT30;58277;47.316;18.908;2022-10-31T08:30:51;13.07;87.26
70708;SHT30;58277;47.316;18.908;2022-10-31T08:33:32;13.20;86.77
70708;SHT30;58277;47.316;18.908;2022-10-31T08:36:13;13.23;86.90
70708;SHT30;58277;47.316;18.908;2022-10-31T08:38:56;13.12;87.18
70708;SHT30;58277;47.316;18.908;2022-10-31T08:41:24;13.15;86.86
70708;SHT30;58277;47.316;18.908;2022-10-31T08:43:47;13.39;85.98
70708;SHT30;58277;47.316;18.908;2022-10-31T08:46:11;13.30;86.41
70708;SHT30;58277;47.316;18.908;2022-10-31T08:48:35;13.46;85.90
70708;SHT30;58277;47.316;18.908;2022-10-31T08:50:59;13.47;85.74
70708;SHT30;58277;47.316;18.908;2022-10-31T08:53:24;13.37;86.17
70708;SHT30;58277;47.316;18.908;2022-10-31T08:55:59;13.32;87.12
70708;SHT30;58277;47.316;18.908;2022-10-31T08:58:23;13.36;86.93
70708;SHT30;58277;47.316;18.908;2022-10-31T09:00:51;13.51;86.15
70708;SHT30;58277;47.316;18.908;2022-10-31T09:05:42;13.30;86.67
70708;SHT30;58277;47.316;18.908;2022-10-31T09:08:07;13.12;87.20
70708;SHT30;58277;47.316;18.908;2022-10-31T09:10:38;13.10;87.51
70708;SHT30;58277;47.316;18.908;2022-10-31T09:13:07;13.23;87.22
70708;SHT30;58277;47.316;18.908;2022-10-31T09:15:49;13.28;87.03
70708;SHT30;58277;47.316;18.908;2022-10-31T09:18:18;13.17;87.04
70708;SHT30;58277;47.316;18.908;2022-10-31T09:20:50;12.96;87.86
70708;SHT30;58277;47.316;18.908;2022-10-31T09:25:38;13.26;87.20
70708;SHT30;58277;47.316;18.908;2022-10-31T09:28:22;13.09;86.86
70708;SHT30;58277;47.316;18.908;2022-10-31T09:30:49;12.99;88.00
70708;SHT30;58277;47.316;18.908;2022-10-31T09:33:28;13.09;87.33
70708;SHT30;58277;47.316;18.908;2022-10-31T09:36:10;13.33;87.04
70708;SHT30;58277;47.316;18.908;2022-10-31T09:38:35;13.10;87.42
70708;SHT30;58277;47.316;18.908;2022-10-31T09:47:11;13.05;87.28
70708;SHT30;58277;47.316;18.908;2022-10-31T09:49:42;12.92;87.57
70708;SHT30;58277;47.316;18.908;2022-10-31T09:54:43;12.88;87.61
70708;SHT30;58277;47.316;18.908;2022-10-31T09:57:12;13.05;87.14
70708;SHT30;58277;47.316;18.908;2022-10-31T09:59:39;12.87;87.40
70708;SHT30;58277;47.316;18.908;2022-10-31T10:10:53;12.67;87.81
70708;SHT30;58277;47.316;18.908;2022-10-31T10:24:17;12.72;87.35
70708;SHT30;58277;47.316;18.908;2022-10-31T10:31:58;12.93;87.01
70708;SHT30;58277;47.316;18.908;2022-10-31T10:34:34;13.06;86.82
70708;SHT30;58277;47.316;18.908;2022-10-31T10:37:34;13.15;86.47
70708;SHT30;58277;47.316;18.908;2022-10-31T10:39:56;13.16;86.12
70708;SHT30;58277;47.316;18.908;2022-10-31T10:42:25;13.44;85.45
70708;SHT30;58277;47.316;18.908;2022-10-31T10:45:19;13.50;85.07
70708;SHT30;58277;47.316;18.908;2022-10-31T10:48:15;13.77;84.16
70708;SHT30;58277;47.316;18.908;2022-10-31T10:50:48;13.73;84.35
70708;SHT30;58277;47.316;18.908;2022-10-31T10:58:24;13.42;84.98
70708;SHT30;58277;47.316;18.908;2022-10-31T11:00:47;13.44;85.01
70708;SHT30;58277;47.316;18.908;2022-10-31T11:03:13;13.40;85.36
70708;SHT30;58277;47.316;18.908;2022-10-31T11:05:57;13.54;84.58
70708;SHT30;58277;47.316;18.908;2022-10-31T11:13:25;13.54;85.24
70708;SHT30;58277;47.316;18.908;2022-10-31T11:16:07;13.30;86.04
70708;SHT30;58277;47.316;18.908;2022-10-31T11:18:45;13.03;86.88
70708;SHT30;58277;47.316;18.908;2022-10-31T11:21:28;13.06;86.31
70708;SHT30;58277;47.316;18.908;2022-10-31T11:26:33;13.23;86.22
70708;SHT30;58277;47.316;18.908;2022-10-31T11:28:58;13.44;85.38
70708;SHT30;58277;47.316;18.908;2022-10-31T11:31:21;13.57;85.06
70708;SHT30;58277;47.316;18.908;2022-10-31T11:36:16;13.68;85.52
70708;SHT30;58277;47.316;18.908;2022-10-31T11:38:42;13.81;84.89
70708;SHT30;58277;47.316;18.908;2022-10-31T11:41:12;13.81;84.66
70708;SHT30;58277;47.316;18.908;2022-10-31T11:43:36;13.89;84.61
70708;SHT30;58277;47.316;18.908;2022-10-31T11:45:58;13.63;85.02
70708;SHT30;58277;47.316;18.908;2022-10-31T11:48:22;13.58;85.65
70708;SHT30;58277;47.316;18.908;2022-10-31T11:50:54;13.46;85.39
70708;SHT30;58277;47.316;18.908;2022-10-31T11:53:21;13.48;85.66
70708;SHT30;58277;47.316;18.908;2022-10-31T11:55:45;13.42;85.92
70708;SHT30;58277;47.316;18.908;2022-10-31T11:58:25;13.27;85.92
70708;SHT30;58277;47.316;18.908;2022-10-31T12:00:54;13.10;86.99
70708;SHT30;58277;47.316;18.908;2022-10-31T12:03:33;13.44;85.98
70708;SHT30;58277;47.316;18.908;2022-10-31T12:06:20;13.50;86.15
70708;SHT30;58277;47.316;18.908;2022-10-31T12:08:44;13.44;86.41
70708;SHT30;58277;47.316;18.908;2022-10-31T12:16:55;12.74;88.01
70708;SHT30;58277;47.316;18.908;2022-10-31T12:28:57;12.74;88.47
70708;SHT30;58277;47.316;18.908;2022-10-31T12:34:44;12.64;88.65
70708;SHT30;58277;47.316;18.908;2022-10-31T12:37:57;12.77;88.33
70708;SHT30;58277;47.316;18.908;2022-10-31T12:48:18;12.71;88.84
70708;SHT30;58277;47.316;18.908;2022-10-31T12:50:52;12.92;88.11
70708;SHT30;58277;47.316;18.908;2022-10-31T12:58:51;12.75;88.76
70708;SHT30;58277;47.316;18.908;2022-10-31T13:01:32;12.75;88.51
70708;SHT30;58277;47.316;18.908;2022-10-31T13:04:05;12.81;88.34
70708;SHT30;58277;47.316;18.908;2022-10-31T13:06:41;12.98;88.06
70708;SHT30;58277;47.316;18.908;2022-10-31T13:09:09;13.03;87.87
70708;SHT30;58277;47.316;18.908;2022-10-31T13:11:37;12.82;88.30
70708;SHT30;58277;47.316;18.908;2022-10-31T13:14:11;12.79;88.58
70708;SHT30;58277;47.316;18.908;2022-10-31T13:16:41;12.72;88.97
70708;SHT30;58277;47.316;18.908;2022-10-31T13:19:19;12.69;89.02
70708;SHT30;58277;47.316;18.908;2022-10-31T13:21:55;12.81;89.02
70708;SHT30;58277;47.316;18.908;2022-10-31T13:24:23;12.62;89.14
70708;SHT30;58277;47.316;18.908;2022-10-31T13:26:50;12.82;88.70
70708;SHT30;58277;47.316;18.908;2022-10-31T13:31:56;12.75;88.68
70708;SHT30;58277;47.316;18.908;2022-10-31T13:34:35;12.67;88.86
70708;SHT30;58277;47.316;18.908;2022-10-31T13:42:45;12.57;88.97
70708;SHT30;58277;47.316;18.908;2022-10-31T13:45:19;12.45;89.55
70708;SHT30;58277;47.316;18.908;2022-10-31T13:47:42;12.50;89.57
70708;SHT30;58277;47.316;18.908;2022-10-31T13:50:14;12.52;89.33
70708;SHT30;58277;47.316;18.908;2022-10-31T13:52:40;12.57;89.18
70708;SHT30;58277;47.316;18.908;2022-10-31T13:55:03;12.45;89.46
70708;SHT30;58277;47.316;18.908;2022-10-31T13:57:37;12.50;89.40
70708;SHT30;58277;47.316;18.908;2022-10-31T14:02:49;12.74;88.84
70708;SHT30;58277;47.316;18.908;2022-10-31T14:05:33;12.51;89.50
70708;SHT30;58277;47.316;18.908;2022-10-31T14:07:58;12.58;89.44
70708;SHT30;58277;47.316;18.908;2022-10-31T14:13:08;12.51;89.82
70708;SHT30;58277;47.316;18.908;2022-10-31T14:15:37;12.50;89.84
70708;SHT30;58277;47.316;18.908;2022-10-31T14:18:05;12.50;89.87
70708;SHT30;58277;47.316;18.908;2022-10-31T14:22:57;12.52;89.81
70708;SHT30;58277;47.316;18.908;2022-10-31T14:25:34;12.50;90.09
70708;SHT30;58277;47.316;18.908;2022-10-31T14:28:00;12.55;89.73
70708;SHT30;58277;47.316;18.908;2022-10-31T14:30:26;12.48;90.11
70708;SHT30;58277;47.316;18.908;2022-10-31T14:32:52;12.50;90.14
70708;SHT30;58277;47.316;18.908;2022-10-31T14:35:15;12.57;90.13
70708;SHT30;58277;47.316;18.908;2022-10-31T14:40:45;12.54;90.09
70708;SHT30;58277;47.316;18.908;2022-10-31T14:51:16;12.34;90.60
70708;SHT30;58277;47.316;18.908;2022-10-31T14:53:51;12.31;90.89
70708;SHT30;58277;47.316;18.908;2022-10-31T14:56:30;12.36;90.58
70708;SHT30;58277;47.316;18.908;2022-10-31T14:58:57;12.34;90.79
70708;SHT30;58277;47.316;18.908;2022-10-31T15:01:28;12.17;90.93
70708;SHT30;58277;47.316;18.908;2022-10-31T15:03:52;12.03;91.54
70708;SHT30;58277;47.316;18.908;2022-10-31T15:06:46;12.09;91.62
70708;SHT30;58277;47.316;18.908;2022-10-31T15:09:26;12.04;91.35
70708;SHT30;58277;47.316;18.908;2022-10-31T15:11:49;11.93;91.65
70708;SHT30;58277;47.316;18.908;2022-10-31T15:14:26;11.94;91.78
70708;SHT30;58277;47.316;18.908;2022-10-31T15:16:49;12.02;91.57
70708;SHT30;58277;47.316;18.908;2022-10-31T15:19:16;12.00;91.52
70708;SHT30;58277;47.316;18.908;2022-10-31T15:21:43;12.07;91.36
70708;SHT30;58277;47.316;18.908;2022-10-31T15:24:12;12.07;91.47
70708;SHT30;58277;47.316;18.908;2022-10-31T15:26:39;12.09;91.21
70708;SHT30;58277;47.316;18.908;2022-10-31T15:29:14;12.09;91.35
70708;SHT30;58277;47.316;18.908;2022-10-31T15:31:37;12.17;91.09
70708;SHT30;58277;47.316;18.908;2022-10-31T15:34:11;12.19;90.90
70708;SHT30;58277;47.316;18.908;2022-10-31T15:36:36;12.10;91.07
70708;SHT30;58277;47.316;18.908;2022-10-31T15:39:00;12.20;90.87
70708;SHT30;58277;47.316;18.908;2022-10-31T15:43:55;12.14;90.88
70708;SHT30;58277;47.316;18.908;2022-10-31T15:46:18;12.09;90.99
70708;SHT30;58277;47.316;18.908;2022-10-31T15:48:48;12.07;90.99
70708;SHT30;58277;47.316;18.908;2022-10-31T15:51:11;12.04;91.07
70708;SHT30;58277;47.316;18.908;2022-10-31T15:53:45;12.02;91.01
70708;SHT30;58277;47.316;18.908;2022-10-31T15:56:13;12.02;91.16
70708;SHT30;58277;47.316;18.908;2022-10-31T15:58:46;11.96;91.35
70708;SHT30;58277;47.316;18.908;2022-10-31T16:01:24;11.90;91.68
70708;SHT30;58277;47.316;18.908;2022-10-31T16:06:26;11.96;91.82
70708;SHT30;58277;47.316;18.908;2022-10-31T16:08:50;11.83;92.15
70708;SHT30;58277;47.316;18.908;2022-10-31T16:13:37;11.81;92.27
70708;SHT30;58277;47.316;18.908;2022-10-31T16:16:11;11.89;92.33
70708;SHT30;58277;47.316;18.908;2022-10-31T16:18:55;11.99;92.02
70708;SHT30;58277;47.316;18.908;2022-10-31T16:21:27;12.03;91.70
70708;SHT30;58277;47.316;18.908;2022-10-31T16:23:53;12.12;91.52
70708;SHT30;58277;47.316;18.908;2022-10-31T16:26:19;12.19;91.34
70708;SHT30;58277;47.316;18.908;2022-10-31T16:28:51;12.03;91.57
70708;SHT30;58277;47.316;18.908;2022-10-31T16:31:39;12.16;91.51
70708;SHT30;58277;47.316;18.908;2022-10-31T16:34:13;12.20;91.43
70708;SHT30;58277;47.316;18.908;2022-10-31T16:36:36;12.07;91.65
70708;SHT30;58277;47.316;18.908;2022-10-31T16:39:00;12.10;91.75
70708;SHT30;58277;47.316;18.908;2022-10-31T16:41:24;12.10;91.91
70708;SHT30;58277;47.316;18.908;2022-10-31T16:43:47;11.97;92.25
70708;SHT30;58277;47.316;18.908;2022-10-31T16:46:24;11.89;92.35
70708;SHT30;58277;47.316;18.908;2022-10-31T16:48:48;11.75;92.74
70708;SHT30;58277;47.316;18.908;2022-10-31T16:51:11;11.68;93.21
70708;SHT30;58277;47.316;18.908;2022-10-31T16:53:34;11.71;93.03
70708;SHT30;58277;47.316;18.908;2022-10-31T16:56:01;11.69;93.03
70708;SHT30;58277;47.316;18.908;2022-10-31T16:58:29;11.71;93.11
70708;SHT30;58277;47.316;18.908;2022-10-31T17:00:52;11.61;93.06
70708;SHT30;58277;47.316;18.908;2022-10-31T17:03:15;11.65;93.06
70708;SHT30;58277;47.316;18.908;2022-10-31T17:05:45;11.61;93.32
70708;SHT30;58277;47.316;18.908;2022-10-31T17:08:08;11.62;93.25
70708;SHT30;58277;47.316;18.908;2022-10-31T17:10:31;11.59;93.28
70708;SHT30;58277;47.316;18.908;2022-10-31T17:12:54;11.52;93.58
70708;SHT30;58277;47.316;18.908;2022-10-31T17:15:18;11.55;93.62
70708;SHT30;58277;47.316;18.908;2022-10-31T17:17:41;11.62;93.42
70708;SHT30;58277;47.316;18.908;2022-10-31T17:20:17;11.57;93.50
70708;SHT30;58277;47.316;18.908;2022-10-31T17:22:40;11.64;93.19
70708;SHT30;58277;47.316;18.908;2022-10-31T17:25:03;11.45;93.78
70708;SHT30;58277;47.316;18.908;2022-10-31T17:27:25;11.50;93.92
70708;SHT30;58277;47.316;18.908;2022-10-31T17:29:48;11.58;93.76
70708;SHT30;58277;47.316;18.908;2022-10-31T17:32:10;11.52;93.82
70708;SHT30;58277;47.316;18.908;2022-10-31T17:34:33;11.55;93.88
70708;SHT30;58277;47.316;18.908;2022-10-31T17:36:56;11.58;93.65
70708;SHT30;58277;47.316;18.908;2022-10-31T17:39:19;11.61;93.64
70708;SHT30;58277;47.316;18.908;2022-10-31T17:41:41;11.68;93.67
70708;SHT30;58277;47.316;18.908;2022-10-31T17:44:04;11.62;93.71
70708;SHT30;58277;47.316;18.908;2022-10-31T17:46:27;11.62;93.59
70708;SHT30;58277;47.316;18.908;2022-10-31T17:48:50;11.58;93.70
70708;SHT30;58277;47.316;18.908;2022-10-31T17:51:12;11.52;93.94
70708;SHT30;58277;47.316;18.908;2022-10-31T17:53:35;11.58;93.91
70708;SHT30;58277;47.316;18.908;2022-10-31T17:56:03;11.48;93.78
70708;SHT30;58277;47.316;18.908;2022-10-31T17:58:26;11.52;94.03
70708;SHT30;58277;47.316;18.908;2022-10-31T18:00:49;11.48;94.10